Time;durP1;ratioP1;P1;durP2;ratioP2;P2;SDS_P1;SDS_P2;PMS_P1;PMS_P2;Temp;Humidity;BMP_temperature;BMP_pressure;BME280_temperature;BME280_humidity;BME280_pressure;Samples;Min_cycle;Max_cycle;Signal;HPM_P1;HPM_P2
2023/01/31 00:01:20;;;;;;;;;31.50;28.75;;;;;8.12;65.67;102530.69;5074313;28;45372;-65
2023/01/31 00:03:47;;;;;;;;;31.00;25.50;;;;;8.06;65.26;102522.69;5075277;28;45435;-65
2023/01/31 00:06:19;;;;;;;;;33.00;25.25;;;;;8.06;65.62;102517.34;5079705;28;45519;-65
2023/01/31 00:08:46;;;;;;;;;40.00;30.50;;;;;8.06;65.43;102515.56;5061536;28;45362;-65
2023/01/31 00:11:13;;;;;;;;;33.00;32.75;;;;;8.03;65.36;102502.25;5059808;28;45539;-65
2023/01/31 00:13:39;;;;;;;;;33.25;29.00;;;;;8.05;65.28;102507.59;5065384;28;45353;-65
2023/01/31 00:16:06;;;;;;;;;37.25;29.00;;;;;8.01;65.32;102508.47;5078485;28;45315;-65
2023/01/31 00:18:32;;;;;;;;;33.50;29.00;;;;;8.00;65.30;102520.84;5059792;28;46321;-65
2023/01/31 00:20:58;;;;;;;;;39.75;31.25;;;;;7.91;65.38;102507.50;5076303;27;46013;-65
2023/01/31 00:23:23;;;;;;;;;37.00;28.25;;;;;7.87;65.57;102501.28;5063018;28;45310;-65
2023/01/31 00:25:48;;;;;;;;;33.50;32.50;;;;;7.87;65.35;102498.63;5058913;28;45406;-65
2023/01/31 00:28:14;;;;;;;;;36.25;28.50;;;;;7.93;65.45;102505.75;5059052;28;46529;-65
2023/01/31 00:30:39;;;;;;;;;31.50;26.50;;;;;7.91;65.62;102507.50;5073558;28;45417;-65
2023/01/31 00:33:04;;;;;;;;;30.25;28.00;;;;;7.85;65.63;102508.38;5075385;28;45421;-65
2023/01/31 00:35:30;;;;;;;;;33.50;33.25;;;;;7.84;65.67;102506.56;5077985;28;45528;-64
2023/01/31 00:37:55;;;;;;;;;42.00;34.25;;;;;7.85;65.54;102505.69;5068169;27;46291;-65
2023/01/31 00:40:20;;;;;;;;;43.75;36.50;;;;;7.86;65.83;102503.94;5058875;28;45314;-65
2023/01/31 00:42:46;;;;;;;;;40.25;33.50;;;;;7.84;65.72;102509.22;5065428;28;45506;-65
2023/01/31 00:45:12;;;;;;;;;57.25;42.75;;;;;7.83;65.68;102506.56;5066251;28;45547;-65
2023/01/31 00:47:37;;;;;;;;;52.75;38.75;;;;;7.76;65.76;102508.28;5076318;28;46874;-65
2023/01/31 00:50:04;;;;;;;;;49.25;38.25;;;;;7.72;65.34;102496.72;5066043;28;45279;-65
2023/01/31 00:52:29;;;;;;;;;40.25;34.75;;;;;7.69;65.62;102496.72;5072172;28;45377;-65
2023/01/31 00:54:54;;;;;;;;;26.50;26.25;;;;;7.71;65.68;102508.22;5078926;28;45389;-65
2023/01/31 00:57:20;;;;;;;;;32.25;27.00;;;;;7.65;65.53;102505.56;5062151;28;47186;-65
2023/01/31 00:59:45;;;;;;;;;31.75;24.75;;;;;7.60;65.89;102501.94;5069376;28;45376;-65
2023/01/31 01:02:10;;;;;;;;;33.50;28.25;;;;;7.60;66.23;102504.59;5064877;28;45457;-65
2023/01/31 01:04:36;;;;;;;;;28.00;25.75;;;;;7.59;65.90;102500.19;5066197;27;45437;-65
2023/01/31 01:07:01;;;;;;;;;27.75;25.75;;;;;7.46;65.83;102480.56;5059866;28;46170;-65
2023/01/31 01:09:26;;;;;;;;;28.25;24.50;;;;;7.52;65.70;102493.03;5075498;28;45435;-65
2023/01/31 01:11:52;;;;;;;;;30.25;27.25;;;;;7.45;65.95;102486.78;5072521;28;45751;-65
2023/01/31 01:14:17;;;;;;;;;32.00;29.50;;;;;7.33;66.03;102471.59;5058683;28;45503;-65
2023/01/31 01:16:43;;;;;;;;;33.75;30.75;;;;;7.41;66.40;102480.53;5058611;28;45394;-65
2023/01/31 01:19:15;;;;;;;;;21.75;21.00;;;;;7.43;66.20;102477.88;5072038;28;45421;-65
2023/01/31 01:21:40;;;;;;;;;24.25;23.50;;;;;7.36;65.81;102466.31;5062287;28;45594;-65
2023/01/31 01:24:11;;;;;;;;;34.00;27.75;;;;;7.36;66.18;102468.97;5078301;27;45460;-65
2023/01/31 01:26:36;;;;;;;;;28.25;23.50;;;;;7.29;66.00;102463.63;5068219;28;46871;-65
2023/01/31 01:29:03;;;;;;;;;31.50;26.50;;;;;7.31;66.06;102472.47;5064350;28;45302;-65
2023/01/31 01:31:29;;;;;;;;;28.50;25.25;;;;;7.34;66.24;102486.66;5070537;28;45564;-65
2023/01/31 01:33:57;;;;;;;;;27.25;25.75;;;;;7.35;66.20;102492.88;5058384;28;45282;-65
2023/01/31 01:36:23;;;;;;;;;26.25;21.75;;;;;7.34;66.24;102492.00;5072128;28;46573;-65
2023/01/31 01:38:48;;;;;;;;;13.00;6.50;;;;;7.31;65.94;102486.63;5073666;28;45395;-65
2023/01/31 01:41:14;;;;;;;;;25.00;21.25;;;;;7.31;66.52;102489.28;5065644;28;45578;-65
2023/01/31 01:43:42;;;;;;;;;26.25;24.75;;;;;7.29;66.09;102495.50;5077313;28;45467;-65
2023/01/31 01:46:10;;;;;;;;;25.25;21.00;;;;;7.31;65.97;102497.25;5070965;27;45417;-65
2023/01/31 01:48:37;;;;;;;;;30.25;25.25;;;;;7.24;66.31;102485.69;5087841;27;45496;-65
2023/01/31 01:51:05;;;;;;;;;23.00;21.00;;;;;7.18;66.51;102485.66;5075178;27;45451;-65
2023/01/31 01:53:33;;;;;;;;;28.50;25.25;;;;;7.14;66.34;102481.19;5061604;28;45389;-65
2023/01/31 01:56:08;;;;;;;;;23.50;21.75;;;;;7.16;66.74;102481.19;5061479;28;45408;-65
2023/01/31 01:58:59;;;;;;;;;28.25;25.50;;;;;7.20;66.40;102480.34;5075034;28;45315;-65
2023/01/31 02:01:31;;;;;;;;;30.75;23.25;;;;;7.17;66.74;102483.88;5074376;28;45392;-65
2023/01/31 02:03:56;;;;;;;;;33.50;25.50;;;;;7.13;66.36;102470.53;5077169;28;45458;-65
2023/01/31 02:06:22;;;;;;;;;30.25;24.25;;;;;7.11;66.28;102473.16;5061148;28;46451;-65
2023/01/31 02:08:48;;;;;;;;;24.50;23.50;;;;;7.13;66.76;102481.16;5077298;28;45457;-65
2023/01/31 02:11:26;;;;;;;;;26.50;22.00;;;;;7.05;66.46;102470.47;5080497;27;45401;-65
2023/01/31 02:13:58;;;;;;;;;18.50;18.25;;;;;7.02;66.76;102462.47;5061384;28;45549;-65
2023/01/31 02:16:24;;;;;;;;;29.50;21.75;;;;;7.10;66.38;102475.81;5063500;28;45705;-65
2023/01/31 02:18:50;;;;;;;;;27.75;21.25;;;;;7.08;66.69;102469.59;5072235;28;45557;-65
2023/01/31 02:21:52;;;;;;;;;21.50;18.50;;;;;7.09;66.43;102472.28;5075984;27;45517;-65
2023/01/31 02:24:39;;;;;;;;;24.00;20.50;;;;;7.10;66.65;102473.16;5076843;28;45299;-65
2023/01/31 02:27:39;;;;;;;;;29.75;24.00;;;;;7.08;66.48;102480.22;5077742;28;47012;-65
2023/01/31 02:30:26;;;;;;;;;24.00;21.00;;;;;7.09;66.73;102474.94;5071051;28;45370;-65
2023/01/31 02:33:17;;;;;;;;;30.00;22.75;;;;;7.09;66.56;102471.41;5061313;28;45402;-65
2023/01/31 02:35:57;;;;;;;;;22.50;21.00;;;;;7.09;66.81;102482.91;5076435;28;45513;-65
2023/01/31 02:38:50;;;;;;;;;23.50;21.75;;;;;7.08;66.82;102477.56;5067946;27;45496;-65
2023/01/31 02:41:26;;;;;;;;;24.75;21.25;;;;;7.05;66.83;102481.09;5069744;28;45613;-65
2023/01/31 02:46:46;;;;;;;;;18.50;17.00;;;;;7.03;66.88;102483.75;5069396;28;45361;-65
2023/01/31 02:49:33;;;;;;;;;25.50;22.75;;;;;7.05;66.73;102486.41;5066981;28;45448;-65
2023/01/31 02:52:15;;;;;;;;;24.25;19.75;;;;;6.98;66.75;102466.88;5075707;27;45388;-65
2023/01/31 02:57:29;;;;;;;;;23.00;21.25;;;;;6.99;66.92;102473.06;5069868;27;45502;-65
2023/01/31 02:59:55;;;;;;;;;24.25;17.50;;;;;6.95;66.61;102460.63;5065306;27;45465;-65
2023/01/31 03:02:23;;;;;;;;;21.00;20.25;;;;;6.88;67.21;102462.31;5060231;28;45462;-65
2023/01/31 03:04:49;;;;;;;;;24.50;21.00;;;;;6.90;67.17;102459.69;5074084;28;45279;-65
2023/01/31 03:07:25;;;;;;;;;16.00;14.75;;;;;6.94;66.92;102472.13;5066590;28;45363;-65
2023/01/31 03:10:15;;;;;;;;;19.00;13.75;;;;;6.96;67.20;102475.69;5063236;28;45446;-65
2023/01/31 03:12:55;;;;;;;;;21.00;20.75;;;;;6.94;66.72;102469.47;5072803;28;45402;-65
2023/01/31 03:18:33;;;;;;;;;19.50;16.75;;;;;6.91;67.04;102472.09;5066687;28;45329;-65
2023/01/31 03:21:07;;;;;;;;;27.25;20.50;;;;;6.89;67.22;102472.06;5077583;27;46344;-65
2023/01/31 03:23:36;;;;;;;;;24.75;21.00;;;;;6.94;67.08;102469.47;5079073;28;45322;-65
2023/01/31 03:26:04;;;;;;;;;18.75;16.75;;;;;6.88;67.15;102472.94;5076308;27;45467;-65
2023/01/31 03:28:34;;;;;;;;;20.75;17.75;;;;;6.93;66.86;102483.59;5070697;28;45567;-65
2023/01/31 03:31:20;;;;;;;;;21.00;20.00;;;;;6.94;66.77;102483.63;5077311;28;45903;-65
2023/01/31 03:33:56;;;;;;;;;18.00;15.50;;;;;6.92;66.76;102484.50;5077926;27;45326;-65
2023/01/31 03:36:27;;;;;;;;;16.50;12.75;;;;;6.90;67.08;102492.44;5074079;28;45608;-65
2023/01/31 03:39:03;;;;;;;;;16.00;13.00;;;;;6.79;66.93;102470.19;5070525;28;45761;-65
2023/01/31 03:41:40;;;;;;;;;18.50;14.75;;;;;6.88;66.51;102483.56;5073619;28;46795;-65
2023/01/31 03:44:14;;;;;;;;;16.50;16.50;;;;;6.87;66.93;102487.09;5074595;28;45555;-65
2023/01/31 03:46:46;;;;;;;;;21.50;19.50;;;;;6.81;67.21;102471.97;5072165;28;45564;-65
2023/01/31 03:49:14;;;;;;;;;20.25;17.50;;;;;6.85;67.32;102480.88;5071191;27;45251;-65
2023/01/31 03:51:56;;;;;;;;;20.25;19.50;;;;;6.80;67.19;102479.91;5067204;28;46184;-65
2023/01/31 03:54:28;;;;;;;;;22.50;20.00;;;;;6.82;66.88;102476.44;5068534;28;45302;-65
2023/01/31 03:57:06;;;;;;;;;19.00;17.25;;;;;6.85;66.82;102480.88;5062382;28;45430;-65
2023/01/31 03:59:36;;;;;;;;;15.25;15.00;;;;;6.76;67.25;102467.50;5070072;28;45674;-65
2023/01/31 04:02:04;;;;;;;;;22.75;19.25;;;;;6.72;67.21;102474.53;5064403;28;45529;-65
2023/01/31 04:04:37;;;;;;;;;19.50;17.25;;;;;6.73;67.25;102472.78;5067717;27;45730;-65
2023/01/31 04:07:05;;;;;;;;;17.75;16.00;;;;;6.65;66.81;102460.31;5059667;28;45496;-65
2023/01/31 04:09:31;;;;;;;;;18.75;17.50;;;;;6.66;67.46;102471.81;5076152;28;45731;-65
2023/01/31 04:12:00;;;;;;;;;20.00;20.00;;;;;6.70;67.65;102483.34;5066740;28;45404;-65
2023/01/31 04:14:25;;;;;;;;;16.50;15.75;;;;;6.61;67.18;102461.13;5079147;28;45321;-65
2023/01/31 04:16:51;;;;;;;;;22.00;14.50;;;;;6.65;67.36;102476.25;5059727;28;45412;-65
2023/01/31 04:19:16;;;;;;;;;16.50;13.00;;;;;6.66;66.95;102480.66;5070782;28;45438;-65
2023/01/31 04:21:41;;;;;;;;;20.75;16.75;;;;;6.65;67.01;102481.53;5076411;28;46584;-65
2023/01/31 04:24:08;;;;;;;;;22.50;17.50;;;;;6.66;67.05;102487.72;5077499;27;45648;-65
2023/01/31 04:26:34;;;;;;;;;22.50;17.25;;;;;6.61;67.01;102476.19;5059269;28;45751;-65
2023/01/31 04:29:00;;;;;;;;;20.00;16.50;;;;;6.60;66.82;102470.00;5065722;28;45399;-65
2023/01/31 04:31:25;;;;;;;;;22.75;19.25;;;;;6.63;67.75;102478.00;5060708;28;46219;-65
2023/01/31 04:33:50;;;;;;;;;14.00;13.75;;;;;6.63;67.15;102493.00;5059320;28;45430;-65
2023/01/31 04:36:16;;;;;;;;;19.75;15.50;;;;;6.64;67.09;102485.06;5072287;28;45470;-65
2023/01/31 04:38:41;;;;;;;;;19.75;16.75;;;;;6.63;67.10;102485.03;5075661;27;45313;-65
2023/01/31 04:41:07;;;;;;;;;20.75;17.75;;;;;6.62;67.65;102492.13;5071364;27;45905;-65
2023/01/31 04:43:32;;;;;;;;;21.00;19.00;;;;;6.62;67.65;102496.53;5073038;28;45386;-65
2023/01/31 04:45:57;;;;;;;;;18.00;16.25;;;;;6.62;67.54;102492.13;5075492;28;45447;-65
2023/01/31 04:48:23;;;;;;;;;17.75;12.00;;;;;6.63;67.68;102500.97;5078175;28;45473;-65
2023/01/31 04:50:48;;;;;;;;;16.25;13.75;;;;;6.62;67.11;102483.28;5081640;27;46184;-65
2023/01/31 04:53:14;;;;;;;;;19.50;15.75;;;;;6.61;67.98;102477.06;5079085;28;45310;-65
2023/01/31 04:55:39;;;;;;;;;11.00;11.00;;;;;6.64;67.58;102484.19;5072935;28;45349;-65
2023/01/31 04:58:04;;;;;;;;;14.25;10.75;;;;;6.64;67.33;102474.44;5064278;28;45455;-65
2023/01/31 05:00:30;;;;;;;;;11.50;9.50;;;;;6.64;67.57;102478.88;5064554;28;47076;-65
2023/01/31 05:02:55;;;;;;;;;15.25;14.50;;;;;6.55;67.28;102468.13;5074487;28;45471;-65
2023/01/31 05:05:20;;;;;;;;;12.00;11.00;;;;;6.61;67.32;102476.19;5072382;28;45270;-65
2023/01/31 05:07:46;;;;;;;;;17.50;11.75;;;;;6.58;67.88;102481.44;5061329;28;45578;-65
2023/01/31 05:10:12;;;;;;;;;12.75;10.75;;;;;6.62;67.74;102480.63;5077370;28;45994;-65
2023/01/31 05:12:37;;;;;;;;;16.00;12.00;;;;;6.63;67.73;102483.31;5078932;28;45481;-65
2023/01/31 05:15:06;;;;;;;;;11.50;8.25;;;;;6.62;67.20;102470.88;5070314;27;45530;-65
2023/01/31 05:17:31;;;;;;;;;15.00;11.00;;;;;6.62;67.61;102465.59;5058819;28;45433;-65
2023/01/31 05:19:57;;;;;;;;;12.00;11.75;;;;;6.60;67.91;102456.72;5074618;28;46019;-65
2023/01/31 05:22:23;;;;;;;;;15.00;12.00;;;;;6.61;67.58;102447.00;5077806;28;45312;-64
2023/01/31 05:24:49;;;;;;;;;16.00;13.50;;;;;6.61;67.20;102453.19;5081058;28;45346;-65
2023/01/31 05:27:15;;;;;;;;;15.75;12.00;;;;;6.54;67.28;102442.50;5067067;28;45259;-65
2023/01/31 05:29:41;;;;;;;;;13.75;13.75;;;;;6.58;67.38;102462.88;5072286;28;46273;-65
2023/01/31 05:32:07;;;;;;;;;19.25;15.00;;;;;6.57;67.95;102462.00;5068097;28;45347;-65
2023/01/31 05:34:32;;;;;;;;;13.50;12.50;;;;;6.51;68.12;102456.59;5062410;28;45473;-65
2023/01/31 05:36:58;;;;;;;;;14.00;11.00;;;;;6.53;67.98;102472.53;5080061;28;45384;-65
2023/01/31 05:39:24;;;;;;;;;17.50;14.00;;;;;6.48;67.49;102456.56;5069440;28;45455;-65
2023/01/31 05:41:49;;;;;;;;;11.50;11.00;;;;;6.49;67.72;102468.97;5078264;28;45889;-65
2023/01/31 05:44:15;;;;;;;;;12.75;10.00;;;;;6.52;68.05;102478.75;5082170;27;45512;-65
2023/01/31 05:46:40;;;;;;;;;16.00;13.00;;;;;6.53;67.97;102486.69;5069977;27;45511;-65
2023/01/31 05:49:06;;;;;;;;;14.00;11.25;;;;;6.47;68.31;102470.72;5065569;28;46208;-65
2023/01/31 05:51:31;;;;;;;;;15.25;15.00;;;;;6.55;68.09;102487.63;5062668;28;45376;-65
2023/01/31 05:53:57;;;;;;;;;10.00;10.00;;;;;6.55;67.76;102484.06;5066810;28;45362;-65
2023/01/31 05:56:22;;;;;;;;;17.00;11.50;;;;;6.51;67.44;102479.59;5069926;28;45448;-65
2023/01/31 05:58:49;;;;;;;;;12.25;11.00;;;;;6.47;68.10;102468.06;5072544;28;46630;-65
2023/01/31 06:01:17;;;;;;;;;14.50;11.00;;;;;6.50;68.20;102476.06;5073966;27;46061;-65
2023/01/31 06:03:43;;;;;;;;;11.00;10.00;;;;;6.54;67.93;102482.28;5075672;28;45433;-65
2023/01/31 06:06:08;;;;;;;;;11.00;8.25;;;;;6.54;68.13;102480.53;5081684;27;45559;-65
2023/01/31 06:08:33;;;;;;;;;9.00;6.75;;;;;6.55;68.22;102482.31;5071970;28;46948;-65
2023/01/31 06:11:03;;;;;;;;;11.75;10.25;;;;;6.57;68.24;102483.22;5061095;28;45366;-65
2023/01/31 06:13:32;;;;;;;;;14.00;12.00;;;;;6.46;68.44;102466.25;5062762;28;45314;-65
2023/01/31 06:15:57;;;;;;;;;15.75;10.75;;;;;6.53;68.79;102461.94;5072413;28;45521;-65
2023/01/31 06:18:23;;;;;;;;;14.50;11.25;;;;;6.53;68.31;102465.47;5069086;27;46424;-65
2023/01/31 06:20:49;;;;;;;;;13.00;9.50;;;;;6.46;68.11;102451.22;5076463;28;45670;-65
2023/01/31 06:23:14;;;;;;;;;13.75;12.00;;;;;6.54;68.86;102467.25;5062983;28;45512;-65
2023/01/31 06:25:40;;;;;;;;;16.25;11.00;;;;;6.52;69.03;102457.50;5069102;28;45322;-65
2023/01/31 06:28:05;;;;;;;;;11.50;10.75;;;;;6.50;68.82;102454.84;5077696;27;46332;-65
2023/01/31 06:30:31;;;;;;;;;11.25;7.00;;;;;6.61;68.75;102478.84;5066679;28;45413;-65
2023/01/31 06:32:58;;;;;;;;;7.00;7.00;;;;;6.59;68.73;102486.78;5076485;28;45583;-65
2023/01/31 06:35:24;;;;;;;;;8.25;8.25;;;;;6.61;68.90;102492.97;5079790;28;45514;-65
2023/01/31 06:37:49;;;;;;;;;8.00;7.50;;;;;6.61;69.14;102478.84;5070093;28;46428;-65
2023/01/31 06:40:14;;;;;;;;;11.50;11.50;;;;;6.68;69.21;102500.16;5073262;28;45394;-65
2023/01/31 06:42:40;;;;;;;;;8.25;7.00;;;;;6.71;68.87;102504.59;5078106;27;45344;-65
2023/01/31 06:45:05;;;;;;;;;6.00;6.00;;;;;6.63;68.94;102477.06;5076474;28;45339;-65
2023/01/31 06:47:31;;;;;;;;;6.25;6.00;;;;;6.65;68.92;102484.19;5071946;28;45396;-65
2023/01/31 06:49:56;;;;;;;;;7.25;7.00;;;;;6.77;69.28;102510.00;5068466;28;45422;-65
2023/01/31 06:52:21;;;;;;;;;8.75;8.75;;;;;6.78;68.80;102508.22;5072239;28;45429;-65
2023/01/31 06:54:47;;;;;;;;;11.00;9.00;;;;;6.78;69.51;102509.13;5062874;27;45522;-65
2023/01/31 06:57:12;;;;;;;;;15.00;11.75;;;;;6.73;69.13;102496.66;5082419;27;46257;-65
2023/01/31 06:59:37;;;;;;;;;11.00;11.00;;;;;6.82;68.76;102515.34;5078673;27;45522;-65
2023/01/31 07:02:02;;;;;;;;;10.50;9.50;;;;;6.81;68.79;102516.22;5069869;28;45434;-65
2023/01/31 07:04:28;;;;;;;;;15.25;10.25;;;;;6.81;69.20;102502.94;5060524;28;45562;-65
2023/01/31 07:06:53;;;;;;;;;13.50;11.00;;;;;6.83;68.76;102507.41;5060570;28;45447;-65
2023/01/31 07:09:19;;;;;;;;;0.00;0.00;;;;;6.78;68.86;102492.28;5063681;28;45416;-65
2023/01/31 07:11:44;;;;;;;;;9.50;8.25;;;;;6.80;68.61;102501.16;5069677;28;45446;-65
2023/01/31 07:14:09;;;;;;;;;11.50;9.25;;;;;6.78;68.85;102498.50;5076024;28;45559;-65
2023/01/31 07:16:36;;;;;;;;;8.75;8.25;;;;;6.73;69.15;102488.69;5079237;28;45484;-65
2023/01/31 07:19:02;;;;;;;;;8.50;7.00;;;;;6.72;69.17;102493.13;5070111;27;45458;-65
2023/01/31 07:21:28;;;;;;;;;9.75;8.50;;;;;6.78;68.97;102501.16;5068617;28;45465;-65
2023/01/31 07:23:53;;;;;;;;;10.00;8.00;;;;;6.86;69.12;102515.38;5068857;27;46158;-65
2023/01/31 07:26:19;;;;;;;;;7.25;6.25;;;;;6.88;69.39;102504.78;5069556;27;45650;-65
2023/01/31 07:28:44;;;;;;;;;10.75;10.00;;;;;6.85;69.25;102499.47;5066696;28;45698;-65
2023/01/31 07:31:12;;;;;;;;;8.00;6.00;;;;;6.85;69.22;102494.16;5079472;28;45381;-70
2023/01/31 07:33:38;;;;;;;;;6.50;6.50;;;;;6.86;68.93;102494.16;5075586;28;45563;-71
2023/01/31 07:36:05;;;;;;;;;7.00;7.00;;;;;6.89;69.29;102501.28;5060280;28;45887;-72
2023/01/31 07:38:31;;;;;;;;;10.75;8.25;;;;;6.91;68.89;102509.25;5090024;27;46353;-72
2023/01/31 07:41:02;;;;;;;;;11.25;8.00;;;;;6.95;69.09;102519.94;5077775;28;45268;-75
2023/01/31 07:43:28;;;;;;;;;13.75;10.25;;;;;6.85;68.67;102494.16;5069276;27;45484;-72
2023/01/31 07:45:53;;;;;;;;;8.75;7.50;;;;;6.91;68.86;102509.25;5068074;27;45801;-73
2023/01/31 07:48:22;;;;;;;;;11.00;7.00;;;;;6.90;69.18;102503.06;5068631;28;46060;-67
2023/01/31 07:50:49;;;;;;;;;7.00;7.00;;;;;6.87;69.03;102497.72;5075426;27;45349;-67
2023/01/31 07:53:15;;;;;;;;;12.00;8.25;;;;;6.90;69.37;102508.38;5083314;27;45627;-67
2023/01/31 07:55:40;;;;;;;;;15.50;8.25;;;;;6.91;68.84;102514.56;5072117;28;46253;-67
2023/01/31 07:58:05;;;;;;;;;12.25;10.75;;;;;6.86;68.92;102501.22;5072508;28;45285;-68
2023/01/31 08:03:32;;;;;;;;;10.50;8.00;;;;;6.86;69.13;102514.50;5070690;27;45672;-67
2023/01/31 08:06:08;;;;;;;;;11.00;7.75;;;;;6.85;69.44;102510.97;5080513;27;45553;-67
2023/01/31 08:08:37;;;;;;;;;11.50;8.25;;;;;6.81;69.22;102508.25;5058110;28;45923;-67
2023/01/31 08:11:06;;;;;;;;;10.75;10.00;;;;;6.88;69.61;102515.41;5071101;27;45531;-67
2023/01/31 08:13:34;;;;;;;;;9.25;7.25;;;;;6.86;68.96;102515.38;5068637;27;45558;-66
2023/01/31 08:16:01;;;;;;;;;3.00;3.00;;;;;6.88;68.98;102507.44;5062609;27;45918;-66
2023/01/31 08:18:26;;;;;;;;;9.25;8.50;;;;;6.96;69.31;102519.03;5066484;27;46290;-66
2023/01/31 08:20:52;;;;;;;;;10.00;10.00;;;;;6.94;69.21;102514.59;5067951;27;45455;-66
2023/01/31 08:23:17;;;;;;;;;17.25;12.25;;;;;6.91;69.11;102523.41;5077439;27;45578;-66
2023/01/31 08:25:43;;;;;;;;;14.75;11.75;;;;;6.80;69.37;102519.72;5071013;27;48026;-66
2023/01/31 08:28:09;;;;;;;;;11.00;7.50;;;;;6.85;69.05;102528.66;5068514;27;45483;-66
2023/01/31 08:30:41;;;;;;;;;8.25;8.00;;;;;6.88;69.53;102536.66;5072571;27;45347;-66
2023/01/31 08:33:07;;;;;;;;;10.25;8.50;;;;;6.91;69.49;102533.16;5063492;27;45506;-66
2023/01/31 08:35:33;;;;;;;;;8.50;7.00;;;;;6.92;69.22;102529.63;5087380;27;46551;-66
2023/01/31 08:37:58;;;;;;;;;12.75;10.50;;;;;6.95;69.13;102537.59;5079053;27;45316;-66
2023/01/31 08:40:23;;;;;;;;;15.75;10.00;;;;;6.91;69.24;102525.19;5075325;27;45484;-66
2023/01/31 08:42:56;;;;;;;;;11.75;10.00;;;;;6.95;69.35;102538.53;5078900;27;45711;-67
2023/01/31 08:45:22;;;;;;;;;11.50;10.50;;;;;6.93;69.79;102545.56;5075062;27;46153;-67
2023/01/31 08:47:47;;;;;;;;;11.00;9.75;;;;;6.98;69.52;102553.56;5074134;27;45565;-66
2023/01/31 08:50:13;;;;;;;;;13.50;11.25;;;;;6.91;69.39;102539.34;5078596;27;45461;-65
2023/01/31 08:52:38;;;;;;;;;11.75;8.00;;;;;6.97;69.55;102555.34;5071521;27;45387;-66
2023/01/31 08:55:05;;;;;;;;;10.50;9.25;;;;;6.88;69.23;102538.41;5074193;27;46266;-67
2023/01/31 08:57:30;;;;;;;;;13.25;10.00;;;;;7.00;69.39;102560.69;5071815;28;45762;-66
2023/01/31 08:59:56;;;;;;;;;14.00;10.00;;;;;6.98;69.65;102551.84;5082957;27;45719;-66
2023/01/31 09:02:21;;;;;;;;;12.75;10.00;;;;;6.97;69.64;102541.19;5076732;27;46874;-66
2023/01/31 09:04:47;;;;;;;;;11.75;10.00;;;;;6.95;69.54;102538.53;5077413;27;45594;-66
2023/01/31 09:07:12;;;;;;;;;11.75;10.50;;;;;7.00;69.43;102542.13;5082745;27;45765;-66
2023/01/31 09:09:37;;;;;;;;;10.75;7.50;;;;;6.98;69.84;102527.94;5077101;27;45582;-66
2023/01/31 09:12:03;;;;;;;;;11.50;11.00;;;;;7.05;69.83;102527.13;5069158;27;45310;-66
2023/01/31 09:14:30;;;;;;;;;12.25;11.00;;;;;7.05;69.24;102527.13;5064344;28;47598;-66
2023/01/31 09:16:55;;;;;;;;;13.75;10.75;;;;;7.03;69.40;102528.88;5078710;27;45704;-66
2023/01/31 09:19:22;;;;;;;;;14.50;11.75;;;;;7.13;69.55;102536.94;5076445;27;45582;-66
2023/01/31 09:21:47;;;;;;;;;10.50;9.00;;;;;7.16;69.35;102535.19;5075596;27;45516;-66
2023/01/31 09:24:13;;;;;;;;;10.50;9.50;;;;;7.21;69.57;102538.78;5076213;27;45380;-66
2023/01/31 09:26:38;;;;;;;;;18.25;10.00;;;;;7.24;69.48;102537.94;5078372;27;45483;-66
2023/01/31 09:29:04;;;;;;;;;6.50;6.25;;;;;7.35;69.61;102549.56;5076482;28;45696;-66
2023/01/31 09:31:30;;;;;;;;;10.00;10.00;;;;;7.40;69.23;102545.19;5072552;27;45618;-66
2023/01/31 09:33:55;;;;;;;;;11.50;11.00;;;;;7.39;69.52;102543.41;5082507;27;47261;-66
2023/01/31 09:36:23;;;;;;;;;10.50;10.00;;;;;7.41;69.14;102552.25;5074932;27;45639;-66
2023/01/31 09:38:53;;;;;;;;;12.00;10.25;;;;;7.50;69.67;102569.16;5074450;27;46454;-65
2023/01/31 09:41:23;;;;;;;;;10.25;9.00;;;;;7.54;69.21;102560.38;5063174;27;45386;-66
2023/01/31 09:43:56;;;;;;;;;12.00;10.00;;;;;7.52;69.10;102554.16;5075857;27;47850;-66
2023/01/31 09:46:26;;;;;;;;;11.75;10.50;;;;;7.51;69.22;102558.56;5075255;27;45338;-66
2023/01/31 09:48:54;;;;;;;;;8.25;8.25;;;;;7.50;68.88;102563.84;5076392;27;45652;-65
2023/01/31 09:51:19;;;;;;;;;10.00;7.00;;;;;7.45;69.33;102542.59;5081008;27;45502;-65
2023/01/31 09:53:46;;;;;;;;;9.75;7.50;;;;;7.59;69.06;102558.66;5068179;27;46109;-65
2023/01/31 09:56:23;;;;;;;;;7.50;6.75;;;;;7.56;69.04;102556.84;5070989;27;45401;-66
2023/01/31 09:59:03;;;;;;;;;10.00;9.75;;;;;7.66;69.15;102565.78;5075479;27;45417;-66
2023/01/31 10:02:10;;;;;;;;;10.25;7.75;;;;;7.74;69.02;102574.72;5068959;27;45401;-66
2023/01/31 10:05:22;;;;;;;;;11.50;7.25;;;;;7.78;69.21;102570.31;5027491;28;47413;-65
2023/01/31 10:08:09;;;;;;;;;8.50;7.00;;;;;7.83;68.99;102573.91;5019021;28;45986;-65
2023/01/31 10:10:46;;;;;;;;;4.25;4.25;;;;;7.87;68.66;102567.75;5026512;28;45515;-65
2023/01/31 10:13:25;;;;;;;;;6.50;4.50;;;;;7.68;68.72;102516.19;5061750;28;45698;-66
2023/01/31 10:16:01;;;;;;;;;6.00;4.25;;;;;7.97;68.44;102566.06;5059744;28;47971;-66
2023/01/31 10:18:32;;;;;;;;;6.75;5.00;;;;;8.03;68.40;102570.53;5078090;27;45485;-65
2023/01/31 10:21:12;;;;;;;;;6.25;5.75;;;;;8.02;68.19;102563.41;5065998;28;45380;-65
2023/01/31 10:23:43;;;;;;;;;6.25;4.50;;;;;8.13;68.15;102575.03;5076545;27;45451;-66
2023/01/31 10:26:14;;;;;;;;;9.00;3.75;;;;;8.11;68.03;102567.03;5067909;27;45443;-66
2023/01/31 10:28:53;;;;;;;;;6.75;5.50;;;;;8.19;67.96;102576.84;5081319;27;45385;-66
2023/01/31 10:31:40;;;;;;;;;5.75;5.75;;;;;8.21;67.66;102580.41;5079422;27;45444;-66
2023/01/31 10:34:16;;;;;;;;;7.00;6.50;;;;;8.29;67.56;102573.38;5077552;27;45585;-67
2023/01/31 10:36:41;;;;;;;;;6.75;3.00;;;;;8.32;67.25;102568.06;5075695;27;45773;-66
2023/01/31 10:39:20;;;;;;;;;3.67;3.33;;;;;8.35;67.27;102557.44;5067658;28;45387;-66
2023/01/31 10:42:00;;;;;;;;;4.00;4.00;;;;;8.38;67.07;102559.22;5077450;27;45616;-66
2023/01/31 10:44:43;;;;;;;;;1.50;1.50;;;;;8.43;66.91;102552.19;5076842;28;45270;-68
2023/01/31 10:47:17;;;;;;;;;6.75;3.25;;;;;8.45;66.85;102547.75;5076494;27;45391;-67
2023/01/31 10:49:46;;;;;;;;;3.75;3.75;;;;;8.47;66.92;102538.91;5070023;27;46024;-77
2023/01/31 10:52:24;;;;;;;;;6.50;4.00;;;;;8.59;66.59;102547.84;5072609;27;45459;-77
2023/01/31 10:55:10;;;;;;;;;9.00;6.00;;;;;8.63;66.73;102555.84;5071968;27;45457;-71
2023/01/31 10:57:36;;;;;;;;;9.00;6.00;;;;;8.66;66.34;102554.97;5083809;27;45636;-75
2023/01/31 11:00:03;;;;;;;;;8.75;4.00;;;;;8.60;66.11;102534.53;5070426;28;45427;-76
2023/01/31 11:02:29;;;;;;;;;6.00;6.00;;;;;8.69;66.28;102547.00;5077865;27;45418;-76
2023/01/31 11:04:58;;;;;;;;;7.50;6.25;;;;;8.75;66.35;102541.69;5074115;27;45820;-76
2023/01/31 11:07:28;;;;;;;;;14.00;8.00;;;;;8.73;66.10;102535.47;5062924;27;45770;-73
2023/01/31 11:09:54;;;;;;;;;7.50;6.50;;;;;8.79;65.50;102531.97;5061619;28;45848;-67
2023/01/31 11:12:21;;;;;;;;;8.25;8.00;;;;;8.79;65.96;102516.88;5067865;27;45758;-67
2023/01/31 11:15:06;;;;;;;;;7.00;7.00;;;;;8.87;65.95;102517.78;5069007;27;45565;-67
2023/01/31 11:17:36;;;;;;;;;6.50;6.50;;;;;8.86;65.84;102508.00;5066258;27;46561;-67
2023/01/31 11:20:05;;;;;;;;;7.75;7.00;;;;;8.87;66.12;102490.25;5074870;27;46114;-67
2023/01/31 11:22:32;;;;;;;;;7.00;6.25;;;;;8.91;65.79;102494.72;5086714;27;45414;-67
2023/01/31 11:25:03;;;;;;;;;8.00;5.50;;;;;9.04;65.39;102508.97;5077477;27;45691;-67
2023/01/31 11:27:36;;;;;;;;;6.00;4.00;;;;;9.06;65.73;102510.72;5079608;27;45555;-67
2023/01/31 11:30:03;;;;;;;;;1.00;1.00;;;;;9.07;65.22;102503.59;5075447;27;45658;-67
2023/01/31 11:32:34;;;;;;;;;9.00;6.00;;;;;9.06;65.15;102496.53;5075959;27;45523;-67
2023/01/31 11:35:03;;;;;;;;;3.50;3.50;;;;;9.06;65.58;102484.06;5078072;27;45807;-67
2023/01/31 11:37:29;;;;;;;;;5.25;5.25;;;;;9.19;65.52;102500.09;5077617;27;46259;-67
2023/01/31 11:39:54;;;;;;;;;10.00;8.00;;;;;9.23;65.27;102491.22;5066983;28;45963;-67
2023/01/31 11:42:19;;;;;;;;;8.25;7.75;;;;;9.25;64.86;102492.09;5065352;27;45370;-67